sensor_id;sensor_type;location;lat;lon;timestamp;temperature;humidity
15749;DHT22;7976;52.526;13.326;2024-02-04T00:00:11;8.40;99.90
15749;DHT22;7976;52.526;13.326;2024-02-04T00:02:40;8.30;99.90
15749;DHT22;7976;52.526;13.326;2024-02-04T00:05:07;8.30;99.90
15749;DHT22;7976;52.526;13.326;2024-02-04T00:07:34;8.30;99.90
15749;DHT22;7976;52.526;13.326;2024-02-04T00:10:01;8.20;99.90
15749;DHT22;7976;52.526;13.326;2024-02-04T00:12:28;8.30;99.90
15749;DHT22;7976;52.526;13.326;2024-02-04T00:14:55;8.30;99.90
15749;DHT22;7976;52.526;13.326;2024-02-04T00:17:22;8.30;99.90
15749;DHT22;7976;52.526;13.326;2024-02-04T00:19:56;8.30;99.90
15749;DHT22;7976;52.526;13.326;2024-02-04T00:22:23;8.30;99.90
15749;DHT22;7976;52.526;13.326;2024-02-04T00:24:50;8.30;99.90
15749;DHT22;7976;52.526;13.326;2024-02-04T00:27:17;8.30;99.90
15749;DHT22;7976;52.526;13.326;2024-02-04T00:29:44;8.30;99.90
15749;DHT22;7976;52.526;13.326;2024-02-04T00:32:11;8.30;99.90
15749;DHT22;7976;52.526;13.326;2024-02-04T00:34:38;8.30;99.90
15749;DHT22;7976;52.526;13.326;2024-02-04T00:37:06;8.30;99.90
15749;DHT22;7976;52.526;13.326;2024-02-04T00:39:33;8.20;99.90
15749;DHT22;7976;52.526;13.326;2024-02-04T00:42:00;8.20;99.90
15749;DHT22;7976;52.526;13.326;2024-02-04T00:44:26;8.10;99.90
15749;DHT22;7976;52.526;13.326;2024-02-04T00:46:53;8.10;99.90
15749;DHT22;7976;52.526;13.326;2024-02-04T00:49:20;8.00;99.90
15749;DHT22;7976;52.526;13.326;2024-02-04T00:51:47;7.90;99.90
15749;DHT22;7976;52.526;13.326;2024-02-04T00:54:15;7.90;99.90
15749;DHT22;7976;52.526;13.326;2024-02-04T00:56:42;7.80;99.90
15749;DHT22;7976;52.526;13.326;2024-02-04T00:59:09;7.70;99.90
15749;DHT22;7976;52.526;13.326;2024-02-04T01:01:36;7.70;99.90
15749;DHT22;7976;52.526;13.326;2024-02-04T01:04:03;7.70;99.90
15749;DHT22;7976;52.526;13.326;2024-02-04T01:06:30;7.60;99.90
15749;DHT22;7976;52.526;13.326;2024-02-04T01:08:57;7.60;99.90
15749;DHT22;7976;52.526;13.326;2024-02-04T01:11:26;7.60;99.90
15749;DHT22;7976;52.526;13.326;2024-02-04T01:13:54;7.60;99.90
15749;DHT22;7976;52.526;13.326;2024-02-04T01:16:21;7.50;99.90
15749;DHT22;7976;52.526;13.326;2024-02-04T01:18:48;7.50;99.90
15749;DHT22;7976;52.526;13.326;2024-02-04T01:21:15;7.50;99.90
15749;DHT22;7976;52.526;13.326;2024-02-04T01:23:42;7.40;99.90
15749;DHT22;7976;52.526;13.326;2024-02-04T01:26:09;7.40;99.90
15749;DHT22;7976;52.526;13.326;2024-02-04T01:28:37;7.40;99.90
15749;DHT22;7976;52.526;13.326;2024-02-04T01:31:04;7.40;99.90
15749;DHT22;7976;52.526;13.326;2024-02-04T01:33:31;7.40;99.90
15749;DHT22;7976;52.526;13.326;2024-02-04T01:35:57;7.50;99.90
15749;DHT22;7976;52.526;13.326;2024-02-04T01:38:24;7.50;99.90
15749;DHT22;7976;52.526;13.326;2024-02-04T01:40:51;7.50;99.90
15749;DHT22;7976;52.526;13.326;2024-02-04T01:43:19;7.50;99.90
15749;DHT22;7976;52.526;13.326;2024-02-04T01:45:50;7.50;99.90
15749;DHT22;7976;52.526;13.326;2024-02-04T01:48:19;7.40;99.90
15749;DHT22;7976;52.526;13.326;2024-02-04T01:50:47;7.40;99.90
15749;DHT22;7976;52.526;13.326;2024-02-04T01:53:15;7.30;99.90
15749;DHT22;7976;52.526;13.326;2024-02-04T01:55:45;7.30;99.90
15749;DHT22;7976;52.526;13.326;2024-02-04T01:58:12;7.30;99.90
15749;DHT22;7976;52.526;13.326;2024-02-04T02:00:39;7.30;99.90
15749;DHT22;7976;52.526;13.326;2024-02-04T02:03:10;7.20;99.90
15749;DHT22;7976;52.526;13.326;2024-02-04T02:05:39;7.20;99.90
15749;DHT22;7976;52.526;13.326;2024-02-04T02:08:07;7.20;99.90
15749;DHT22;7976;52.526;13.326;2024-02-04T02:10:34;7.20;99.90
15749;DHT22;7976;52.526;13.326;2024-02-04T02:13:08;7.20;99.90
15749;DHT22;7976;52.526;13.326;2024-02-04T02:15:44;7.20;99.90
15749;DHT22;7976;52.526;13.326;2024-02-04T02:18:18;7.20;99.90
15749;DHT22;7976;52.526;13.326;2024-02-04T02:21:02;7.20;99.90
15749;DHT22;7976;52.526;13.326;2024-02-04T02:23:52;7.20;99.90
15749;DHT22;7976;52.526;13.326;2024-02-04T02:26:31;7.10;99.90
15749;DHT22;7976;52.526;13.326;2024-02-04T02:28:59;7.10;99.90
15749;DHT22;7976;52.526;13.326;2024-02-04T02:31:25;7.10;99.90
15749;DHT22;7976;52.526;13.326;2024-02-04T02:33:52;7.10;99.90
15749;DHT22;7976;52.526;13.326;2024-02-04T02:36:21;7.00;99.90
15749;DHT22;7976;52.526;13.326;2024-02-04T02:38:55;7.10;99.90
15749;DHT22;7976;52.526;13.326;2024-02-04T02:41:30;7.10;99.90
15749;DHT22;7976;52.526;13.326;2024-02-04T02:44:01;7.10;99.90
15749;DHT22;7976;52.526;13.326;2024-02-04T02:46:31;7.10;99.90
15749;DHT22;7976;52.526;13.326;2024-02-04T02:48:58;7.10;99.90
15749;DHT22;7976;52.526;13.326;2024-02-04T02:51:25;7.10;99.90
15749;DHT22;7976;52.526;13.326;2024-02-04T02:53:52;7.10;99.90
15749;DHT22;7976;52.526;13.326;2024-02-04T02:56:19;7.20;99.90
15749;DHT22;7976;52.526;13.326;2024-02-04T02:58:46;7.20;99.90
15749;DHT22;7976;52.526;13.326;2024-02-04T03:01:13;7.20;99.90
15749;DHT22;7976;52.526;13.326;2024-02-04T03:03:40;7.30;99.90
15749;DHT22;7976;52.526;13.326;2024-02-04T03:06:06;7.30;99.90
15749;DHT22;7976;52.526;13.326;2024-02-04T03:08:34;7.30;99.90
15749;DHT22;7976;52.526;13.326;2024-02-04T03:11:01;7.40;99.90
15749;DHT22;7976;52.526;13.326;2024-02-04T03:13:27;7.40;99.90
15749;DHT22;7976;52.526;13.326;2024-02-04T03:15:57;7.40;99.90
15749;DHT22;7976;52.526;13.326;2024-02-04T03:18:24;7.40;99.90
15749;DHT22;7976;52.526;13.326;2024-02-04T03:20:51;7.40;99.90
15749;DHT22;7976;52.526;13.326;2024-02-04T03:23:17;7.40;99.90
15749;DHT22;7976;52.526;13.326;2024-02-04T03:25:45;7.40;99.90
15749;DHT22;7976;52.526;13.326;2024-02-04T03:28:12;7.40;99.90
15749;DHT22;7976;52.526;13.326;2024-02-04T03:30:38;7.50;99.90
15749;DHT22;7976;52.526;13.326;2024-02-04T03:33:07;7.50;99.90
15749;DHT22;7976;52.526;13.326;2024-02-04T03:35:34;7.50;99.90
15749;DHT22;7976;52.526;13.326;2024-02-04T03:38:03;7.50;99.90
15749;DHT22;7976;52.526;13.326;2024-02-04T03:40:30;7.50;99.90
15749;DHT22;7976;52.526;13.326;2024-02-04T03:42:59;7.50;99.90
15749;DHT22;7976;52.526;13.326;2024-02-04T03:45:27;7.50;99.90
15749;DHT22;7976;52.526;13.326;2024-02-04T03:47:54;7.50;99.90
15749;DHT22;7976;52.526;13.326;2024-02-04T03:50:22;7.60;99.90
15749;DHT22;7976;52.526;13.326;2024-02-04T03:52:49;7.60;99.90
15749;DHT22;7976;52.526;13.326;2024-02-04T03:55:16;7.60;99.90
15749;DHT22;7976;52.526;13.326;2024-02-04T03:57:42;7.60;99.90
15749;DHT22;7976;52.526;13.326;2024-02-04T04:00:10;7.60;99.90
15749;DHT22;7976;52.526;13.326;2024-02-04T04:02:39;7.50;99.90
15749;DHT22;7976;52.526;13.326;2024-02-04T04:05:10;7.50;99.90
15749;DHT22;7976;52.526;13.326;2024-02-04T04:07:39;7.50;99.90
15749;DHT22;7976;52.526;13.326;2024-02-04T04:10:06;7.40;99.90
15749;DHT22;7976;52.526;13.326;2024-02-04T04:12:33;7.40;99.90
15749;DHT22;7976;52.526;13.326;2024-02-04T04:15:00;7.30;99.90
15749;DHT22;7976;52.526;13.326;2024-02-04T04:17:27;7.30;99.90
15749;DHT22;7976;52.526;13.326;2024-02-04T04:19:54;7.20;99.90
15749;DHT22;7976;52.526;13.326;2024-02-04T04:22:21;7.20;99.90
15749;DHT22;7976;52.526;13.326;2024-02-04T04:24:49;7.20;99.90
15749;DHT22;7976;52.526;13.326;2024-02-04T04:27:15;7.10;99.90
15749;DHT22;7976;52.526;13.326;2024-02-04T04:29:42;7.10;99.90
15749;DHT22;7976;52.526;13.326;2024-02-04T04:32:09;7.10;99.90
15749;DHT22;7976;52.526;13.326;2024-02-04T04:34:36;7.00;99.90
15749;DHT22;7976;52.526;13.326;2024-02-04T04:37:03;7.00;99.90
15749;DHT22;7976;52.526;13.326;2024-02-04T04:39:30;7.00;99.90
15749;DHT22;7976;52.526;13.326;2024-02-04T04:41:58;7.00;99.90
15749;DHT22;7976;52.526;13.326;2024-02-04T04:44:25;7.00;99.90
15749;DHT22;7976;52.526;13.326;2024-02-04T04:46:51;7.00;99.90
15749;DHT22;7976;52.526;13.326;2024-02-04T04:49:18;7.00;99.90
15749;DHT22;7976;52.526;13.326;2024-02-04T04:51:45;6.90;99.90
15749;DHT22;7976;52.526;13.326;2024-02-04T04:54:12;7.00;99.90
15749;DHT22;7976;52.526;13.326;2024-02-04T04:56:39;7.00;99.90
15749;DHT22;7976;52.526;13.326;2024-02-04T04:59:08;7.00;99.90
15749;DHT22;7976;52.526;13.326;2024-02-04T05:01:34;7.00;99.90
15749;DHT22;7976;52.526;13.326;2024-02-04T05:04:01;7.00;99.90
15749;DHT22;7976;52.526;13.326;2024-02-04T05:06:28;7.00;99.90
15749;DHT22;7976;52.526;13.326;2024-02-04T05:08:55;7.00;99.90
15749;DHT22;7976;52.526;13.326;2024-02-04T05:11:22;7.00;99.90
15749;DHT22;7976;52.526;13.326;2024-02-04T05:13:49;6.90;99.90
15749;DHT22;7976;52.526;13.326;2024-02-04T05:16:17;6.90;99.90
15749;DHT22;7976;52.526;13.326;2024-02-04T05:18:43;6.90;99.90
15749;DHT22;7976;52.526;13.326;2024-02-04T05:21:10;6.80;99.90
15749;DHT22;7976;52.526;13.326;2024-02-04T05:23:37;6.80;99.90
15749;DHT22;7976;52.526;13.326;2024-02-04T05:26:04;6.80;99.90
15749;DHT22;7976;52.526;13.326;2024-02-04T05:28:32;6.80;99.90
15749;DHT22;7976;52.526;13.326;2024-02-04T05:31:01;6.80;99.90
15749;DHT22;7976;52.526;13.326;2024-02-04T05:33:30;6.80;99.90
15749;DHT22;7976;52.526;13.326;2024-02-04T05:35:56;6.80;99.90
15749;DHT22;7976;52.526;13.326;2024-02-04T05:38:23;6.80;99.90
15749;DHT22;7976;52.526;13.326;2024-02-04T05:40:50;6.80;99.90
15749;DHT22;7976;52.526;13.326;2024-02-04T05:43:17;6.80;99.90
15749;DHT22;7976;52.526;13.326;2024-02-04T05:45:43;6.80;99.90
15749;DHT22;7976;52.526;13.326;2024-02-04T05:48:10;6.80;99.90
15749;DHT22;7976;52.526;13.326;2024-02-04T05:50:40;6.80;99.90
15749;DHT22;7976;52.526;13.326;2024-02-04T05:53:07;6.80;99.90
15749;DHT22;7976;52.526;13.326;2024-02-04T05:55:34;6.80;99.90
15749;DHT22;7976;52.526;13.326;2024-02-04T05:58:01;6.90;99.90
15749;DHT22;7976;52.526;13.326;2024-02-04T06:00:27;6.90;99.90
15749;DHT22;7976;52.526;13.326;2024-02-04T06:02:54;6.90;99.90
15749;DHT22;7976;52.526;13.326;2024-02-04T06:05:21;6.90;99.90
15749;DHT22;7976;52.526;13.326;2024-02-04T06:07:49;6.90;99.90
15749;DHT22;7976;52.526;13.326;2024-02-04T06:10:16;6.90;99.90
15749;DHT22;7976;52.526;13.326;2024-02-04T06:12:44;6.90;99.90
15749;DHT22;7976;52.526;13.326;2024-02-04T06:15:12;6.90;99.90
15749;DHT22;7976;52.526;13.326;2024-02-04T06:17:40;6.90;99.90
15749;DHT22;7976;52.526;13.326;2024-02-04T06:20:08;7.00;99.90
15749;DHT22;7976;52.526;13.326;2024-02-04T06:22:35;7.00;99.90
15749;DHT22;7976;52.526;13.326;2024-02-04T06:25:04;7.00;99.90
15749;DHT22;7976;52.526;13.326;2024-02-04T06:27:31;7.00;99.90
15749;DHT22;7976;52.526;13.326;2024-02-04T06:29:58;6.90;99.90
15749;DHT22;7976;52.526;13.326;2024-02-04T06:32:25;6.90;99.90
15749;DHT22;7976;52.526;13.326;2024-02-04T06:34:52;6.90;99.90
15749;DHT22;7976;52.526;13.326;2024-02-04T06:37:21;6.80;99.90
15749;DHT22;7976;52.526;13.326;2024-02-04T06:39:48;6.80;99.90
15749;DHT22;7976;52.526;13.326;2024-02-04T06:42:16;6.80;99.90
15749;DHT22;7976;52.526;13.326;2024-02-04T06:44:43;6.80;99.90
15749;DHT22;7976;52.526;13.326;2024-02-04T06:47:11;6.80;99.90
15749;DHT22;7976;52.526;13.326;2024-02-04T06:49:39;6.80;99.90
15749;DHT22;7976;52.526;13.326;2024-02-04T06:52:07;6.80;99.90
15749;DHT22;7976;52.526;13.326;2024-02-04T06:54:34;6.80;99.90
15749;DHT22;7976;52.526;13.326;2024-02-04T06:57:00;6.80;99.90
15749;DHT22;7976;52.526;13.326;2024-02-04T06:59:28;6.80;99.90
15749;DHT22;7976;52.526;13.326;2024-02-04T07:01:55;6.80;99.90
15749;DHT22;7976;52.526;13.326;2024-02-04T07:04:22;6.80;99.90
15749;DHT22;7976;52.526;13.326;2024-02-04T07:06:49;6.80;99.90
15749;DHT22;7976;52.526;13.326;2024-02-04T07:09:16;6.80;99.90
15749;DHT22;7976;52.526;13.326;2024-02-04T07:11:43;6.80;99.90
15749;DHT22;7976;52.526;13.326;2024-02-04T07:14:10;6.80;99.90
15749;DHT22;7976;52.526;13.326;2024-02-04T07:16:38;6.80;99.90
15749;DHT22;7976;52.526;13.326;2024-02-04T07:19:06;6.80;99.90
15749;DHT22;7976;52.526;13.326;2024-02-04T07:21:33;6.90;99.90
15749;DHT22;7976;52.526;13.326;2024-02-04T07:23:59;6.90;99.90
15749;DHT22;7976;52.526;13.326;2024-02-04T07:26:27;6.90;99.90
15749;DHT22;7976;52.526;13.326;2024-02-04T07:28:53;6.90;99.90
15749;DHT22;7976;52.526;13.326;2024-02-04T07:31:21;6.90;99.90
15749;DHT22;7976;52.526;13.326;2024-02-04T07:33:49;6.90;99.90
15749;DHT22;7976;52.526;13.326;2024-02-04T07:36:16;7.00;99.90
15749;DHT22;7976;52.526;13.326;2024-02-04T07:38:43;7.00;99.90
15749;DHT22;7976;52.526;13.326;2024-02-04T07:41:13;7.00;99.90
15749;DHT22;7976;52.526;13.326;2024-02-04T07:43:40;7.10;99.90
15749;DHT22;7976;52.526;13.326;2024-02-04T07:46:09;7.10;99.90
15749;DHT22;7976;52.526;13.326;2024-02-04T07:48:36;7.10;99.90
15749;DHT22;7976;52.526;13.326;2024-02-04T07:51:04;7.20;99.90
15749;DHT22;7976;52.526;13.326;2024-02-04T07:53:31;7.20;99.90
15749;DHT22;7976;52.526;13.326;2024-02-04T07:55:58;7.20;99.90
15749;DHT22;7976;52.526;13.326;2024-02-04T07:58:24;7.20;99.90
15749;DHT22;7976;52.526;13.326;2024-02-04T08:00:53;7.30;99.90
15749;DHT22;7976;52.526;13.326;2024-02-04T08:03:19;7.30;99.90
15749;DHT22;7976;52.526;13.326;2024-02-04T08:05:46;7.30;99.90
15749;DHT22;7976;52.526;13.326;2024-02-04T08:08:14;7.30;99.90
15749;DHT22;7976;52.526;13.326;2024-02-04T08:10:41;7.40;99.90
15749;DHT22;7976;52.526;13.326;2024-02-04T08:13:08;7.40;99.90
15749;DHT22;7976;52.526;13.326;2024-02-04T08:15:35;7.50;99.90
15749;DHT22;7976;52.526;13.326;2024-02-04T08:18:02;7.50;99.90
15749;DHT22;7976;52.526;13.326;2024-02-04T08:20:29;7.60;99.90
15749;DHT22;7976;52.526;13.326;2024-02-04T08:22:56;7.60;99.90
15749;DHT22;7976;52.526;13.326;2024-02-04T08:25:24;7.70;99.90
15749;DHT22;7976;52.526;13.326;2024-02-04T08:27:51;7.70;99.90
15749;DHT22;7976;52.526;13.326;2024-02-04T08:30:18;7.80;99.90
15749;DHT22;7976;52.526;13.326;2024-02-04T08:32:45;7.80;99.90
15749;DHT22;7976;52.526;13.326;2024-02-04T08:35:12;7.80;99.90
15749;DHT22;7976;52.526;13.326;2024-02-04T08:37:39;7.80;99.90
15749;DHT22;7976;52.526;13.326;2024-02-04T08:40:07;7.80;99.90
15749;DHT22;7976;52.526;13.326;2024-02-04T08:42:37;7.90;99.90
15749;DHT22;7976;52.526;13.326;2024-02-04T08:45:05;7.90;99.90
15749;DHT22;7976;52.526;13.326;2024-02-04T08:47:32;8.00;99.90
15749;DHT22;7976;52.526;13.326;2024-02-04T08:49:59;8.00;99.90
15749;DHT22;7976;52.526;13.326;2024-02-04T08:52:26;8.00;99.90
15749;DHT22;7976;52.526;13.326;2024-02-04T08:54:53;8.00;99.90
15749;DHT22;7976;52.526;13.326;2024-02-04T08:57:20;8.00;99.90
15749;DHT22;7976;52.526;13.326;2024-02-04T08:59:48;8.10;99.90
15749;DHT22;7976;52.526;13.326;2024-02-04T09:02:15;8.10;99.90
15749;DHT22;7976;52.526;13.326;2024-02-04T09:04:43;8.10;99.90
15749;DHT22;7976;52.526;13.326;2024-02-04T09:07:09;8.20;99.90
15749;DHT22;7976;52.526;13.326;2024-02-04T09:09:36;8.20;99.90
15749;DHT22;7976;52.526;13.326;2024-02-04T09:12:04;8.20;99.90
15749;DHT22;7976;52.526;13.326;2024-02-04T09:14:31;8.30;99.90
15749;DHT22;7976;52.526;13.326;2024-02-04T09:16:59;8.30;99.90
15749;DHT22;7976;52.526;13.326;2024-02-04T09:19:28;8.30;99.90
15749;DHT22;7976;52.526;13.326;2024-02-04T09:21:56;8.30;99.90
15749;DHT22;7976;52.526;13.326;2024-02-04T09:24:25;8.30;99.90
15749;DHT22;7976;52.526;13.326;2024-02-04T09:26:52;8.30;99.90
15749;DHT22;7976;52.526;13.326;2024-02-04T09:29:19;8.40;99.90
15749;DHT22;7976;52.526;13.326;2024-02-04T09:31:47;8.40;99.90
15749;DHT22;7976;52.526;13.326;2024-02-04T09:34:16;8.40;99.90
15749;DHT22;7976;52.526;13.326;2024-02-04T09:36:44;8.50;99.90
15749;DHT22;7976;52.526;13.326;2024-02-04T09:39:11;8.40;99.90
15749;DHT22;7976;52.526;13.326;2024-02-04T09:41:38;8.50;99.90
15749;DHT22;7976;52.526;13.326;2024-02-04T09:44:05;8.50;99.90
15749;DHT22;7976;52.526;13.326;2024-02-04T09:46:34;8.50;99.90
15749;DHT22;7976;52.526;13.326;2024-02-04T09:49:01;8.60;99.90
15749;DHT22;7976;52.526;13.326;2024-02-04T09:51:29;8.60;99.90
15749;DHT22;7976;52.526;13.326;2024-02-04T09:54:00;8.60;99.90
15749;DHT22;7976;52.526;13.326;2024-02-04T09:56:32;8.60;99.90
15749;DHT22;7976;52.526;13.326;2024-02-04T09:59:01;8.70;99.90
15749;DHT22;7976;52.526;13.326;2024-02-04T10:01:28;8.70;99.90
15749;DHT22;7976;52.526;13.326;2024-02-04T10:03:57;8.80;99.90
15749;DHT22;7976;52.526;13.326;2024-02-04T10:06:25;8.90;99.90
15749;DHT22;7976;52.526;13.326;2024-02-04T10:08:53;8.80;99.90
15749;DHT22;7976;52.526;13.326;2024-02-04T10:11:20;8.90;99.90
15749;DHT22;7976;52.526;13.326;2024-02-04T10:13:49;8.90;99.90
15749;DHT22;7976;52.526;13.326;2024-02-04T10:16:16;8.90;99.90
15749;DHT22;7976;52.526;13.326;2024-02-04T10:18:44;8.90;99.90
15749;DHT22;7976;52.526;13.326;2024-02-04T10:21:16;8.90;99.90
15749;DHT22;7976;52.526;13.326;2024-02-04T10:23:45;9.00;99.90
15749;DHT22;7976;52.526;13.326;2024-02-04T10:26:13;9.00;99.90
15749;DHT22;7976;52.526;13.326;2024-02-04T10:28:40;9.00;99.90
15749;DHT22;7976;52.526;13.326;2024-02-04T10:31:08;9.00;99.90
15749;DHT22;7976;52.526;13.326;2024-02-04T10:33:36;9.10;99.90
15749;DHT22;7976;52.526;13.326;2024-02-04T10:36:04;9.10;99.90
15749;DHT22;7976;52.526;13.326;2024-02-04T10:38:32;9.20;99.90
15749;DHT22;7976;52.526;13.326;2024-02-04T10:41:00;9.20;99.90
15749;DHT22;7976;52.526;13.326;2024-02-04T10:43:31;9.20;99.90
15749;DHT22;7976;52.526;13.326;2024-02-04T10:46:03;9.20;99.90
15749;DHT22;7976;52.526;13.326;2024-02-04T10:48:37;9.30;99.90
15749;DHT22;7976;52.526;13.326;2024-02-04T10:51:12;9.20;99.90
15749;DHT22;7976;52.526;13.326;2024-02-04T10:53:41;9.30;99.90
15749;DHT22;7976;52.526;13.326;2024-02-04T10:56:13;9.30;99.90
15749;DHT22;7976;52.526;13.326;2024-02-04T10:58:50;9.30;99.90
15749;DHT22;7976;52.526;13.326;2024-02-04T11:01:19;9.30;99.90
15749;DHT22;7976;52.526;13.326;2024-02-04T11:03:46;9.40;99.90
15749;DHT22;7976;52.526;13.326;2024-02-04T11:06:14;9.30;99.90
15749;DHT22;7976;52.526;13.326;2024-02-04T11:08:41;9.30;99.90
15749;DHT22;7976;52.526;13.326;2024-02-04T11:11:09;9.30;99.90
15749;DHT22;7976;52.526;13.326;2024-02-04T11:13:38;9.30;99.90
15749;DHT22;7976;52.526;13.326;2024-02-04T11:16:19;9.30;99.90
15749;DHT22;7976;52.526;13.326;2024-02-04T11:19:08;9.40;99.90
15749;DHT22;7976;52.526;13.326;2024-02-04T11:21:56;9.30;99.90
15749;DHT22;7976;52.526;13.326;2024-02-04T11:24:59;9.30;99.90
15749;DHT22;7976;52.526;13.326;2024-02-04T11:27:41;9.30;99.90
15749;DHT22;7976;52.526;13.326;2024-02-04T11:30:08;9.30;99.90
15749;DHT22;7976;52.526;13.326;2024-02-04T11:32:37;9.30;99.90
15749;DHT22;7976;52.526;13.326;2024-02-04T11:35:07;9.20;99.90
15749;DHT22;7976;52.526;13.326;2024-02-04T11:37:37;9.20;99.90
15749;DHT22;7976;52.526;13.326;2024-02-04T11:40:13;9.20;99.90
15749;DHT22;7976;52.526;13.326;2024-02-04T11:42:42;9.20;99.90
15749;DHT22;7976;52.526;13.326;2024-02-04T11:45:10;9.20;99.90
15749;DHT22;7976;52.526;13.326;2024-02-04T11:47:41;9.10;99.90
15749;DHT22;7976;52.526;13.326;2024-02-04T11:50:09;9.10;99.90
15749;DHT22;7976;52.526;13.326;2024-02-04T11:52:36;9.10;99.90
15749;DHT22;7976;52.526;13.326;2024-02-04T11:55:03;9.20;99.90
15749;DHT22;7976;52.526;13.326;2024-02-04T11:57:32;9.20;99.90
15749;DHT22;7976;52.526;13.326;2024-02-04T12:00:00;9.30;99.90
15749;DHT22;7976;52.526;13.326;2024-02-04T12:02:31;9.30;99.90
15749;DHT22;7976;52.526;13.326;2024-02-04T12:05:00;9.40;99.90
15749;DHT22;7976;52.526;13.326;2024-02-04T12:07:27;9.50;99.90
15749;DHT22;7976;52.526;13.326;2024-02-04T12:09:55;9.50;99.90
15749;DHT22;7976;52.526;13.326;2024-02-04T12:12:23;9.60;99.90
15749;DHT22;7976;52.526;13.326;2024-02-04T12:14:52;9.60;99.90
15749;DHT22;7976;52.526;13.326;2024-02-04T12:17:20;9.60;99.90
15749;DHT22;7976;52.526;13.326;2024-02-04T12:19:46;9.50;99.90
15749;DHT22;7976;52.526;13.326;2024-02-04T12:22:17;9.40;99.90
15749;DHT22;7976;52.526;13.326;2024-02-04T12:24:45;9.30;99.90
15749;DHT22;7976;52.526;13.326;2024-02-04T12:27:12;9.20;99.90
15749;DHT22;7976;52.526;13.326;2024-02-04T12:29:42;9.20;99.90
15749;DHT22;7976;52.526;13.326;2024-02-04T12:32:09;9.10;99.90
15749;DHT22;7976;52.526;13.326;2024-02-04T12:34:36;9.10;99.90
15749;DHT22;7976;52.526;13.326;2024-02-04T12:37:06;9.10;99.90
15749;DHT22;7976;52.526;13.326;2024-02-04T12:39:34;9.10;99.90
15749;DHT22;7976;52.526;13.326;2024-02-04T12:42:01;9.10;99.90
15749;DHT22;7976;52.526;13.326;2024-02-04T12:44:28;9.10;99.90
15749;DHT22;7976;52.526;13.326;2024-02-04T12:46:55;9.10;99.90
15749;DHT22;7976;52.526;13.326;2024-02-04T12:49:22;9.10;99.90
15749;DHT22;7976;52.526;13.326;2024-02-04T12:51:50;9.10;99.90
15749;DHT22;7976;52.526;13.326;2024-02-04T12:54:19;9.20;99.90
15749;DHT22;7976;52.526;13.326;2024-02-04T12:56:49;9.10;99.90
15749;DHT22;7976;52.526;13.326;2024-02-04T12:59:24;9.10;99.90
15749;DHT22;7976;52.526;13.326;2024-02-04T13:01:56;9.20;99.90
15749;DHT22;7976;52.526;13.326;2024-02-04T13:04:24;9.20;99.90
15749;DHT22;7976;52.526;13.326;2024-02-04T13:06:51;9.20;99.90
15749;DHT22;7976;52.526;13.326;2024-02-04T13:09:18;9.20;99.90
15749;DHT22;7976;52.526;13.326;2024-02-04T13:11:47;9.20;99.90
15749;DHT22;7976;52.526;13.326;2024-02-04T13:14:14;9.20;99.90
15749;DHT22;7976;52.526;13.326;2024-02-04T13:16:41;9.30;99.90
15749;DHT22;7976;52.526;13.326;2024-02-04T13:19:08;9.20;99.90
15749;DHT22;7976;52.526;13.326;2024-02-04T13:21:35;9.20;99.90
15749;DHT22;7976;52.526;13.326;2024-02-04T13:24:02;9.20;99.90
15749;DHT22;7976;52.526;13.326;2024-02-04T13:26:31;9.10;99.90
15749;DHT22;7976;52.526;13.326;2024-02-04T13:29:00;9.10;99.90
15749;DHT22;7976;52.526;13.326;2024-02-04T13:31:27;9.10;99.90
15749;DHT22;7976;52.526;13.326;2024-02-04T13:33:54;9.10;99.90
15749;DHT22;7976;52.526;13.326;2024-02-04T13:36:21;9.10;99.90
15749;DHT22;7976;52.526;13.326;2024-02-04T13:38:48;9.00;99.90
15749;DHT22;7976;52.526;13.326;2024-02-04T13:41:15;9.00;99.90
15749;DHT22;7976;52.526;13.326;2024-02-04T13:43:42;9.00;99.90
15749;DHT22;7976;52.526;13.326;2024-02-04T13:46:11;9.00;99.90
15749;DHT22;7976;52.526;13.326;2024-02-04T13:48:38;9.00;99.90
15749;DHT22;7976;52.526;13.326;2024-02-04T13:51:05;9.00;99.90
15749;DHT22;7976;52.526;13.326;2024-02-04T13:53:32;9.00;99.90
15749;DHT22;7976;52.526;13.326;2024-02-04T13:56:01;9.00;99.90
15749;DHT22;7976;52.526;13.326;2024-02-04T13:58:27;9.00;99.90
15749;DHT22;7976;52.526;13.326;2024-02-04T14:00:54;9.00;99.90
15749;DHT22;7976;52.526;13.326;2024-02-04T14:03:23;9.00;99.90
15749;DHT22;7976;52.526;13.326;2024-02-04T14:05:52;9.00;99.90
15749;DHT22;7976;52.526;13.326;2024-02-04T14:08:20;9.00;99.90
15749;DHT22;7976;52.526;13.326;2024-02-04T14:10:48;9.00;99.90
15749;DHT22;7976;52.526;13.326;2024-02-04T14:13:16;8.90;99.90
15749;DHT22;7976;52.526;13.326;2024-02-04T14:15:43;9.00;99.90
15749;DHT22;7976;52.526;13.326;2024-02-04T14:18:11;8.90;99.90
15749;DHT22;7976;52.526;13.326;2024-02-04T14:20:39;9.00;99.90
15749;DHT22;7976;52.526;13.326;2024-02-04T14:23:07;9.00;99.90
15749;DHT22;7976;52.526;13.326;2024-02-04T14:25:37;9.00;99.90
15749;DHT22;7976;52.526;13.326;2024-02-04T14:28:05;9.00;99.90
15749;DHT22;7976;52.526;13.326;2024-02-04T14:30:32;9.00;99.90
15749;DHT22;7976;52.526;13.326;2024-02-04T14:33:02;9.00;99.90
15749;DHT22;7976;52.526;13.326;2024-02-04T14:35:29;9.00;99.90
15749;DHT22;7976;52.526;13.326;2024-02-04T14:37:58;9.00;99.90
15749;DHT22;7976;52.526;13.326;2024-02-04T14:40:25;9.00;99.90
15749;DHT22;7976;52.526;13.326;2024-02-04T14:42:52;9.00;99.90
15749;DHT22;7976;52.526;13.326;2024-02-04T14:45:19;9.00;99.90
15749;DHT22;7976;52.526;13.326;2024-02-04T14:47:47;9.00;99.90
15749;DHT22;7976;52.526;13.326;2024-02-04T14:50:15;8.90;99.90
15749;DHT22;7976;52.526;13.326;2024-02-04T14:52:44;8.90;99.90
15749;DHT22;7976;52.526;13.326;2024-02-04T14:55:13;8.90;99.90
15749;DHT22;7976;52.526;13.326;2024-02-04T14:57:40;8.90;99.90
15749;DHT22;7976;52.526;13.326;2024-02-04T15:00:08;8.90;99.90
15749;DHT22;7976;52.526;13.326;2024-02-04T15:02:36;8.90;99.90
15749;DHT22;7976;52.526;13.326;2024-02-04T15:05:04;8.90;99.90
15749;DHT22;7976;52.526;13.326;2024-02-04T15:07:33;8.90;99.90
15749;DHT22;7976;52.526;13.326;2024-02-04T15:10:01;8.90;99.90
15749;DHT22;7976;52.526;13.326;2024-02-04T15:12:30;8.90;99.90
15749;DHT22;7976;52.526;13.326;2024-02-04T15:15:01;8.90;99.90
15749;DHT22;7976;52.526;13.326;2024-02-04T15:17:30;8.90;99.90
15749;DHT22;7976;52.526;13.326;2024-02-04T15:19:58;8.90;99.90
15749;DHT22;7976;52.526;13.326;2024-02-04T15:22:25;8.90;99.90
15749;DHT22;7976;52.526;13.326;2024-02-04T15:24:58;8.90;99.90
15749;DHT22;7976;52.526;13.326;2024-02-04T15:27:31;8.90;99.90
15749;DHT22;7976;52.526;13.326;2024-02-04T15:30:00;8.90;99.90
15749;DHT22;7976;52.526;13.326;2024-02-04T15:33:11;8.90;99.90
15749;DHT22;7976;52.526;13.326;2024-02-04T15:35:23;8.90;99.90
15749;DHT22;7976;52.526;13.326;2024-02-04T15:37:51;8.90;99.90
15749;DHT22;7976;52.526;13.326;2024-02-04T15:40:19;8.90;99.90
15749;DHT22;7976;52.526;13.326;2024-02-04T15:42:51;8.90;99.90
15749;DHT22;7976;52.526;13.326;2024-02-04T15:45:21;8.90;99.90
15749;DHT22;7976;52.526;13.326;2024-02-04T15:47:50;8.90;99.90
15749;DHT22;7976;52.526;13.326;2024-02-04T15:50:25;8.90;99.90